sensor_id;sensor_type;location;lat;lon;timestamp;pressure;altitude;pressure_sealevel;temperature;humidity
59531;BME280;45349;48.692;8.186;2023-04-03T00:00:53;99364.75;;;3.49;89.52
59531;BME280;45349;48.692;8.186;2023-04-03T00:03:20;99364.03;;;3.47;88.69
59531;BME280;45349;48.692;8.186;2023-04-03T00:05:47;99361.34;;;3.49;88.41
59531;BME280;45349;48.692;8.186;2023-04-03T00:08:14;99363.00;;;3.50;88.16
59531;BME280;45349;48.692;8.186;2023-04-03T00:10:40;99364.75;;;3.49;87.43
59531;BME280;45349;48.692;8.186;2023-04-03T00:13:07;99368.91;;;3.52;87.39
59531;BME280;45349;48.692;8.186;2023-04-03T00:15:35;99356.75;;;3.54;86.96
59531;BME280;45349;48.692;8.186;2023-04-03T00:18:04;99371.13;;;3.58;86.09
59531;BME280;45349;48.692;8.186;2023-04-03T00:20:31;99369.75;;;3.52;86.19
59531;BME280;45349;48.692;8.186;2023-04-03T00:22:58;99374.63;;;3.57;87.15
59531;BME280;45349;48.692;8.186;2023-04-03T00:25:25;99369.94;;;3.49;87.73
59531;BME280;45349;48.692;8.186;2023-04-03T00:27:51;99378.72;;;3.61;87.52
59531;BME280;45349;48.692;8.186;2023-04-03T00:30:21;99378.31;;;3.53;88.09
59531;BME280;45349;48.692;8.186;2023-04-03T00:32:48;99379.41;;;3.49;89.32
59531;BME280;45349;48.692;8.186;2023-04-03T00:35:16;99380.16;;;3.51;88.12
59531;BME280;45349;48.692;8.186;2023-04-03T00:37:43;99384.56;;;3.49;88.94
59531;BME280;45349;48.692;8.186;2023-04-03T00:40:13;99378.84;;;3.44;88.64
59531;BME280;45349;48.692;8.186;2023-04-03T00:42:41;99376.34;;;3.42;88.68
59531;BME280;45349;48.692;8.186;2023-04-03T00:45:29;99376.78;;;3.34;88.85
59531;BME280;45349;48.692;8.186;2023-04-03T00:47:57;99376.47;;;3.24;90.18
59531;BME280;45349;48.692;8.186;2023-04-03T00:50:26;99377.06;;;3.14;93.27
59531;BME280;45349;48.692;8.186;2023-04-03T00:52:53;99377.97;;;2.97;94.64
59531;BME280;45349;48.692;8.186;2023-04-03T00:55:20;99377.25;;;2.78;97.60
59531;BME280;45349;48.692;8.186;2023-04-03T00:57:47;99371.22;;;2.62;98.29
59531;BME280;45349;48.692;8.186;2023-04-03T01:00:19;99371.88;;;2.49;99.68
59531;BME280;45349;48.692;8.186;2023-04-03T01:02:46;99382.16;;;2.33;99.97
59531;BME280;45349;48.692;8.186;2023-04-03T01:05:14;99374.66;;;2.29;100.00
59531;BME280;45349;48.692;8.186;2023-04-03T01:07:44;99372.41;;;2.22;100.00
59531;BME280;45349;48.692;8.186;2023-04-03T01:10:14;99382.03;;;2.19;100.00
59531;BME280;45349;48.692;8.186;2023-04-03T01:12:45;99379.22;;;2.24;100.00
59531;BME280;45349;48.692;8.186;2023-04-03T01:15:14;99368.09;;;2.23;99.36
59531;BME280;45349;48.692;8.186;2023-04-03T01:17:42;99375.88;;;2.21;98.84
59531;BME280;45349;48.692;8.186;2023-04-03T01:20:30;99373.00;;;2.28;97.59
59531;BME280;45349;48.692;8.186;2023-04-03T01:23:15;99389.97;;;2.32;98.17
59531;BME280;45349;48.692;8.186;2023-04-03T01:25:46;99391.78;;;2.30;97.65
59531;BME280;45349;48.692;8.186;2023-04-03T01:28:17;99386.03;;;2.25;98.00
59531;BME280;45349;48.692;8.186;2023-04-03T01:30:48;99390.13;;;2.29;97.78
59531;BME280;45349;48.692;8.186;2023-04-03T01:33:18;99384.53;;;2.20;97.94
59531;BME280;45349;48.692;8.186;2023-04-03T01:35:46;99392.75;;;2.11;98.49
59531;BME280;45349;48.692;8.186;2023-04-03T01:38:13;99395.03;;;2.00;99.44
59531;BME280;45349;48.692;8.186;2023-04-03T01:40:40;99392.00;;;1.91;100.00
59531;BME280;45349;48.692;8.186;2023-04-03T01:43:07;99383.97;;;1.80;100.00
59531;BME280;45349;48.692;8.186;2023-04-03T01:45:34;99388.81;;;1.69;100.00
59531;BME280;45349;48.692;8.186;2023-04-03T01:48:01;99389.38;;;1.58;100.00
59531;BME280;45349;48.692;8.186;2023-04-03T01:50:29;99385.28;;;1.54;100.00
59531;BME280;45349;48.692;8.186;2023-04-03T01:52:55;99389.97;;;1.45;100.00
59531;BME280;45349;48.692;8.186;2023-04-03T01:55:22;99379.50;;;1.31;100.00
59531;BME280;45349;48.692;8.186;2023-04-03T01:57:48;99380.25;;;1.33;100.00
59531;BME280;45349;48.692;8.186;2023-04-03T02:00:16;99378.72;;;1.29;100.00
59531;BME280;45349;48.692;8.186;2023-04-03T02:02:43;99370.16;;;1.28;100.00
59531;BME280;45349;48.692;8.186;2023-04-03T02:05:10;99383.13;;;1.27;100.00
59531;BME280;45349;48.692;8.186;2023-04-03T02:07:38;99378.13;;;1.24;100.00
59531;BME280;45349;48.692;8.186;2023-04-03T02:10:05;99373.47;;;1.13;100.00
59531;BME280;45349;48.692;8.186;2023-04-03T02:12:32;99374.81;;;1.02;100.00
59531;BME280;45349;48.692;8.186;2023-04-03T02:14:58;99370.50;;;1.03;100.00
59531;BME280;45349;48.692;8.186;2023-04-03T02:17:26;99379.63;;;0.91;100.00
59531;BME280;45349;48.692;8.186;2023-04-03T02:19:54;99369.59;;;1.04;100.00
59531;BME280;45349;48.692;8.186;2023-04-03T02:22:20;99364.75;;;0.98;100.00
59531;BME280;45349;48.692;8.186;2023-04-03T02:24:48;99364.16;;;1.10;100.00
59531;BME280;45349;48.692;8.186;2023-04-03T02:27:15;99367.03;;;1.04;100.00
59531;BME280;45349;48.692;8.186;2023-04-03T02:29:42;99363.78;;;1.00;100.00
59531;BME280;45349;48.692;8.186;2023-04-03T02:32:08;99366.81;;;0.90;100.00
59531;BME280;45349;48.692;8.186;2023-04-03T02:34:35;99367.97;;;0.84;100.00
59531;BME280;45349;48.692;8.186;2023-04-03T02:37:03;99358.91;;;0.75;100.00
59531;BME280;45349;48.692;8.186;2023-04-03T02:39:30;99368.16;;;0.79;100.00
59531;BME280;45349;48.692;8.186;2023-04-03T02:41:59;99363.25;;;0.75;100.00
59531;BME280;45349;48.692;8.186;2023-04-03T02:44:27;99359.19;;;0.69;100.00
59531;BME280;45349;48.692;8.186;2023-04-03T02:46:53;99364.81;;;0.77;100.00
59531;BME280;45349;48.692;8.186;2023-04-03T02:49:20;99359.59;;;0.59;100.00
59531;BME280;45349;48.692;8.186;2023-04-03T02:51:47;99362.25;;;0.58;100.00
59531;BME280;45349;48.692;8.186;2023-04-03T02:54:13;99359.41;;;0.64;100.00
59531;BME280;45349;48.692;8.186;2023-04-03T02:56:45;99364.28;;;0.51;100.00
59531;BME280;45349;48.692;8.186;2023-04-03T02:59:13;99362.81;;;0.46;100.00
59531;BME280;45349;48.692;8.186;2023-04-03T03:04:22;99364.81;;;0.39;100.00
59531;BME280;45349;48.692;8.186;2023-04-03T03:06:48;99364.50;;;0.26;100.00
59531;BME280;45349;48.692;8.186;2023-04-03T03:09:16;99364.00;;;0.18;100.00
59531;BME280;45349;48.692;8.186;2023-04-03T03:11:42;99367.47;;;0.17;100.00
59531;BME280;45349;48.692;8.186;2023-04-03T03:14:09;99364.13;;;0.14;100.00
59531;BME280;45349;48.692;8.186;2023-04-03T03:16:37;99362.75;;;0.07;100.00
59531;BME280;45349;48.692;8.186;2023-04-03T03:19:03;99365.38;;;0.06;100.00
59531;BME280;45349;48.692;8.186;2023-04-03T03:21:30;99360.50;;;-0.01;100.00
59531;BME280;45349;48.692;8.186;2023-04-03T03:23:57;99352.31;;;-0.09;100.00
59531;BME280;45349;48.692;8.186;2023-04-03T03:26:23;99353.03;;;-0.05;100.00
59531;BME280;45349;48.692;8.186;2023-04-03T03:28:50;99353.84;;;-0.05;100.00
59531;BME280;45349;48.692;8.186;2023-04-03T03:31:17;99357.56;;;-0.12;100.00
59531;BME280;45349;48.692;8.186;2023-04-03T03:33:45;99348.66;;;-0.03;100.00
59531;BME280;45349;48.692;8.186;2023-04-03T03:36:12;99349.75;;;-0.09;100.00
59531;BME280;45349;48.692;8.186;2023-04-03T03:38:38;99351.75;;;-0.16;100.00
59531;BME280;45349;48.692;8.186;2023-04-03T03:41:05;99352.50;;;-0.13;100.00
59531;BME280;45349;48.692;8.186;2023-04-03T03:43:33;99351.16;;;-0.22;100.00
59531;BME280;45349;48.692;8.186;2023-04-03T03:46:02;99350.47;;;-0.26;100.00
59531;BME280;45349;48.692;8.186;2023-04-03T03:48:29;99359.34;;;-0.35;100.00
59531;BME280;45349;48.692;8.186;2023-04-03T03:50:57;99359.94;;;-0.28;100.00
59531;BME280;45349;48.692;8.186;2023-04-03T03:53:27;99354.44;;;-0.39;100.00
59531;BME280;45349;48.692;8.186;2023-04-03T03:55:58;99350.88;;;-0.37;100.00
59531;BME280;45349;48.692;8.186;2023-04-03T03:58:27;99355.31;;;-0.40;100.00
59531;BME280;45349;48.692;8.186;2023-04-03T04:00:54;99360.69;;;-0.47;100.00
59531;BME280;45349;48.692;8.186;2023-04-03T04:03:20;99362.16;;;-0.41;100.00
59531;BME280;45349;48.692;8.186;2023-04-03T04:05:48;99368.16;;;-0.40;100.00
59531;BME280;45349;48.692;8.186;2023-04-03T04:08:17;99364.81;;;-0.42;100.00
59531;BME280;45349;48.692;8.186;2023-04-03T04:10:44;99366.59;;;-0.45;100.00
59531;BME280;45349;48.692;8.186;2023-04-03T04:13:13;99365.25;;;-0.53;100.00
59531;BME280;45349;48.692;8.186;2023-04-03T04:15:40;99372.69;;;-0.47;100.00
59531;BME280;45349;48.692;8.186;2023-04-03T04:18:07;99371.13;;;-0.51;100.00
59531;BME280;45349;48.692;8.186;2023-04-03T04:20:34;99373.19;;;-0.60;100.00
59531;BME280;45349;48.692;8.186;2023-04-03T04:23:01;99374.66;;;-0.54;100.00
59531;BME280;45349;48.692;8.186;2023-04-03T04:25:30;99379.03;;;-0.56;100.00
59531;BME280;45349;48.692;8.186;2023-04-03T04:27:58;99378.31;;;-0.60;100.00
59531;BME280;45349;48.692;8.186;2023-04-03T04:30:25;99381.72;;;-0.59;100.00
59531;BME280;45349;48.692;8.186;2023-04-03T04:32:53;99381.38;;;-0.29;100.00
59531;BME280;45349;48.692;8.186;2023-04-03T04:35:21;99383.47;;;-0.18;100.00
59531;BME280;45349;48.692;8.186;2023-04-03T04:37:49;99389.09;;;-0.08;100.00
59531;BME280;45349;48.692;8.186;2023-04-03T04:40:17;99383.31;;;-0.13;100.00
59531;BME280;45349;48.692;8.186;2023-04-03T04:42:45;99386.38;;;-0.05;100.00
59531;BME280;45349;48.692;8.186;2023-04-03T04:45:12;99400.06;;;0.35;100.00
59531;BME280;45349;48.692;8.186;2023-04-03T04:47:41;99398.13;;;0.40;100.00
59531;BME280;45349;48.692;8.186;2023-04-03T04:50:09;99402.47;;;0.59;98.28
59531;BME280;45349;48.692;8.186;2023-04-03T04:52:37;99406.56;;;0.44;100.00
59531;BME280;45349;48.692;8.186;2023-04-03T04:55:04;99409.56;;;0.33;100.00
59531;BME280;45349;48.692;8.186;2023-04-03T04:57:32;99404.19;;;0.19;100.00
59531;BME280;45349;48.692;8.186;2023-04-03T05:00:01;99412.16;;;0.12;100.00
59531;BME280;45349;48.692;8.186;2023-04-03T05:02:29;99410.94;;;0.01;100.00
59531;BME280;45349;48.692;8.186;2023-04-03T05:04:56;99409.75;;;-0.11;100.00
59531;BME280;45349;48.692;8.186;2023-04-03T05:07:26;99416.72;;;-0.15;100.00
59531;BME280;45349;48.692;8.186;2023-04-03T05:09:53;99420.44;;;-0.22;100.00
59531;BME280;45349;48.692;8.186;2023-04-03T05:12:20;99420.88;;;-0.33;100.00
59531;BME280;45349;48.692;8.186;2023-04-03T05:14:53;99414.97;;;-0.35;100.00
59531;BME280;45349;48.692;8.186;2023-04-03T05:17:21;99414.19;;;-0.37;100.00
59531;BME280;45349;48.692;8.186;2023-04-03T05:19:51;99406.66;;;-0.42;100.00
59531;BME280;45349;48.692;8.186;2023-04-03T05:22:20;99415.47;;;-0.48;100.00
59531;BME280;45349;48.692;8.186;2023-04-03T05:24:48;99416.13;;;-0.42;100.00
59531;BME280;45349;48.692;8.186;2023-04-03T05:27:16;99422.78;;;-0.38;100.00
59531;BME280;45349;48.692;8.186;2023-04-03T05:29:47;99420.28;;;-0.40;100.00
59531;BME280;45349;48.692;8.186;2023-04-03T05:32:21;99422.66;;;-0.35;100.00
59531;BME280;45349;48.692;8.186;2023-04-03T05:34:52;99421.03;;;-0.38;100.00
59531;BME280;45349;48.692;8.186;2023-04-03T05:37:19;99417.66;;;-0.38;100.00
59531;BME280;45349;48.692;8.186;2023-04-03T05:39:46;99426.19;;;-0.38;100.00
59531;BME280;45349;48.692;8.186;2023-04-03T05:42:13;99422.84;;;-0.40;100.00
59531;BME280;45349;48.692;8.186;2023-04-03T05:44:41;99423.69;;;-0.39;100.00
59531;BME280;45349;48.692;8.186;2023-04-03T05:47:08;99423.47;;;-0.35;100.00
59531;BME280;45349;48.692;8.186;2023-04-03T05:49:36;99430.69;;;-0.22;100.00
59531;BME280;45349;48.692;8.186;2023-04-03T05:52:06;99428.34;;;-0.06;100.00
59531;BME280;45349;48.692;8.186;2023-04-03T05:54:35;99426.28;;;0.02;100.00
59531;BME280;45349;48.692;8.186;2023-04-03T05:57:11;99431.59;;;-0.03;100.00
59531;BME280;45349;48.692;8.186;2023-04-03T05:59:40;99436.41;;;0.05;100.00
59531;BME280;45349;48.692;8.186;2023-04-03T06:02:06;99436.81;;;0.17;100.00
59531;BME280;45349;48.692;8.186;2023-04-03T06:04:36;99434.75;;;0.25;100.00
59531;BME280;45349;48.692;8.186;2023-04-03T06:07:03;99441.38;;;0.31;100.00
59531;BME280;45349;48.692;8.186;2023-04-03T06:09:30;99436.22;;;0.31;100.00
59531;BME280;45349;48.692;8.186;2023-04-03T06:11:58;99440.13;;;0.39;100.00
59531;BME280;45349;48.692;8.186;2023-04-03T06:14:26;99443.28;;;0.46;100.00
59531;BME280;45349;48.692;8.186;2023-04-03T06:16:54;99449.75;;;0.55;99.86
59531;BME280;45349;48.692;8.186;2023-04-03T06:19:21;99447.69;;;0.63;99.59
59531;BME280;45349;48.692;8.186;2023-04-03T06:21:52;99452.56;;;0.69;100.00
59531;BME280;45349;48.692;8.186;2023-04-03T06:24:19;99459.50;;;0.86;98.85
59531;BME280;45349;48.692;8.186;2023-04-03T06:26:48;99454.84;;;0.95;100.00
59531;BME280;45349;48.692;8.186;2023-04-03T06:29:16;99460.06;;;1.12;99.77
59531;BME280;45349;48.692;8.186;2023-04-03T06:31:43;99465.88;;;1.16;96.14
59531;BME280;45349;48.692;8.186;2023-04-03T06:34:11;99461.84;;;1.29;95.91
59531;BME280;45349;48.692;8.186;2023-04-03T06:36:38;99464.00;;;1.39;98.06
59531;BME280;45349;48.692;8.186;2023-04-03T06:39:06;99460.03;;;1.51;93.83
59531;BME280;45349;48.692;8.186;2023-04-03T06:41:33;99460.94;;;1.67;96.37
59531;BME280;45349;48.692;8.186;2023-04-03T06:43:59;99463.94;;;1.77;97.16
59531;BME280;45349;48.692;8.186;2023-04-03T06:46:26;99461.59;;;1.90;96.78
59531;BME280;45349;48.692;8.186;2023-04-03T06:48:53;99463.94;;;1.77;94.06
59531;BME280;45349;48.692;8.186;2023-04-03T06:51:21;99467.19;;;1.81;90.00
59531;BME280;45349;48.692;8.186;2023-04-03T06:53:50;99461.59;;;1.90;89.66
59531;BME280;45349;48.692;8.186;2023-04-03T06:56:19;99465.47;;;1.99;92.38
59531;BME280;45349;48.692;8.186;2023-04-03T06:58:48;99466.50;;;2.12;93.18
59531;BME280;45349;48.692;8.186;2023-04-03T07:01:16;99473.63;;;2.25;87.04
59531;BME280;45349;48.692;8.186;2023-04-03T07:03:43;99476.72;;;2.49;88.53
59531;BME280;45349;48.692;8.186;2023-04-03T07:06:11;99477.25;;;2.72;83.71
59531;BME280;45349;48.692;8.186;2023-04-03T07:08:39;99479.31;;;2.83;83.50
59531;BME280;45349;48.692;8.186;2023-04-03T07:11:08;99482.06;;;2.95;81.88
59531;BME280;45349;48.692;8.186;2023-04-03T07:13:36;99481.41;;;3.08;81.50
59531;BME280;45349;48.692;8.186;2023-04-03T07:16:04;99477.41;;;3.34;81.43
59531;BME280;45349;48.692;8.186;2023-04-03T07:18:31;99478.41;;;3.64;79.77
59531;BME280;45349;48.692;8.186;2023-04-03T07:20:58;99478.41;;;3.48;77.62
59531;BME280;45349;48.692;8.186;2023-04-03T07:23:25;99482.91;;;3.44;76.95
59531;BME280;45349;48.692;8.186;2023-04-03T07:25:52;99486.00;;;3.51;76.18
59531;BME280;45349;48.692;8.186;2023-04-03T07:28:21;99496.72;;;3.59;75.12
59531;BME280;45349;48.692;8.186;2023-04-03T07:30:51;99491.63;;;3.74;75.86
59531;BME280;45349;48.692;8.186;2023-04-03T07:33:20;99488.53;;;3.83;74.29
59531;BME280;45349;48.692;8.186;2023-04-03T07:35:47;99492.00;;;3.98;72.02
59531;BME280;45349;48.692;8.186;2023-04-03T07:38:14;99490.31;;;4.13;70.84
59531;BME280;45349;48.692;8.186;2023-04-03T07:40:45;99493.91;;;4.25;72.54
59531;BME280;45349;48.692;8.186;2023-04-03T07:43:12;99496.28;;;4.58;73.24
59531;BME280;45349;48.692;8.186;2023-04-03T07:45:39;99493.16;;;4.82;66.72
59531;BME280;45349;48.692;8.186;2023-04-03T07:48:07;99499.59;;;5.19;68.38
59531;BME280;45349;48.692;8.186;2023-04-03T07:50:33;99494.81;;;5.54;65.90
59531;BME280;45349;48.692;8.186;2023-04-03T07:53:01;99497.19;;;5.85;61.89
59531;BME280;45349;48.692;8.186;2023-04-03T07:55:29;99496.31;;;5.71;64.38
59531;BME280;45349;48.692;8.186;2023-04-03T07:57:55;99508.13;;;5.48;62.43
59531;BME280;45349;48.692;8.186;2023-04-03T08:00:23;99510.69;;;5.21;61.92
59531;BME280;45349;48.692;8.186;2023-04-03T08:02:50;99501.66;;;4.99;61.06
59531;BME280;45349;48.692;8.186;2023-04-03T08:05:18;99509.44;;;5.41;62.77
59531;BME280;45349;48.692;8.186;2023-04-03T08:07:46;99507.25;;;5.20;59.22
59531;BME280;45349;48.692;8.186;2023-04-03T08:10:13;99506.94;;;5.39;59.91
59531;BME280;45349;48.692;8.186;2023-04-03T08:12:40;99510.09;;;5.72;63.01
59531;BME280;45349;48.692;8.186;2023-04-03T08:15:08;99513.56;;;6.13;63.88
59531;BME280;45349;48.692;8.186;2023-04-03T08:17:35;99504.72;;;6.02;56.95
59531;BME280;45349;48.692;8.186;2023-04-03T08:20:03;99503.50;;;5.94;58.43
59531;BME280;45349;48.692;8.186;2023-04-03T08:22:31;99503.44;;;5.95;58.34
59531;BME280;45349;48.692;8.186;2023-04-03T08:24:58;99507.84;;;6.08;56.89
59531;BME280;45349;48.692;8.186;2023-04-03T08:27:24;99506.28;;;5.78;56.75
59531;BME280;45349;48.692;8.186;2023-04-03T08:29:54;99509.91;;;6.02;56.31
59531;BME280;45349;48.692;8.186;2023-04-03T08:32:20;99514.63;;;6.23;57.76
59531;BME280;45349;48.692;8.186;2023-04-03T08:34:47;99514.91;;;6.05;57.24
59531;BME280;45349;48.692;8.186;2023-04-03T08:37:14;99506.13;;;6.21;56.40
59531;BME280;45349;48.692;8.186;2023-04-03T08:39:43;99512.78;;;6.51;56.98
59531;BME280;45349;48.692;8.186;2023-04-03T08:42:15;99513.50;;;6.53;56.30
59531;BME280;45349;48.692;8.186;2023-04-03T08:44:47;99510.59;;;6.45;56.60
59531;BME280;45349;48.692;8.186;2023-04-03T08:47:23;99524.44;;;6.71;55.88
59531;BME280;45349;48.692;8.186;2023-04-03T08:49:53;99520.22;;;6.30;55.38
59531;BME280;45349;48.692;8.186;2023-04-03T08:52:27;99514.09;;;6.18;54.01
59531;BME280;45349;48.692;8.186;2023-04-03T08:55:02;99523.09;;;5.85;57.73
59531;BME280;45349;48.692;8.186;2023-04-03T08:57:34;99514.91;;;6.05;57.13
59531;BME280;45349;48.692;8.186;2023-04-03T09:00:06;99514.84;;;6.33;55.34
59531;BME280;45349;48.692;8.186;2023-04-03T09:02:38;99525.63;;;6.27;56.57
59531;BME280;45349;48.692;8.186;2023-04-03T09:05:11;99523.59;;;6.58;56.25
59531;BME280;45349;48.692;8.186;2023-04-03T09:07:42;99523.88;;;6.79;55.35
59531;BME280;45349;48.692;8.186;2023-04-03T09:10:13;99522.81;;;7.07;56.39
59531;BME280;45349;48.692;8.186;2023-04-03T09:12:42;99520.31;;;7.32;52.81
59531;BME280;45349;48.692;8.186;2023-04-03T09:15:18;99530.13;;;6.63;54.84
59531;BME280;45349;48.692;8.186;2023-04-03T09:17:53;99520.16;;;6.57;55.07
59531;BME280;45349;48.692;8.186;2023-04-03T09:20:30;99521.94;;;6.83;55.85
59531;BME280;45349;48.692;8.186;2023-04-03T09:22:59;99528.47;;;6.88;56.95
59531;BME280;45349;48.692;8.186;2023-04-03T09:25:31;99518.59;;;6.93;58.18
59531;BME280;45349;48.692;8.186;2023-04-03T09:28:00;99521.03;;;7.21;54.60
59531;BME280;45349;48.692;8.186;2023-04-03T09:30:26;99526.59;;;6.90;54.81
59531;BME280;45349;48.692;8.186;2023-04-03T09:32:56;99529.78;;;6.94;53.24
59531;BME280;45349;48.692;8.186;2023-04-03T09:35:25;99522.09;;;7.18;51.29
59531;BME280;45349;48.692;8.186;2023-04-03T09:37:53;99527.38;;;7.17;54.96
59531;BME280;45349;48.692;8.186;2023-04-03T09:40:35;99528.56;;;7.50;55.07
59531;BME280;45349;48.692;8.186;2023-04-03T09:43:20;99531.88;;;7.76;57.26
59531;BME280;45349;48.692;8.186;2023-04-03T09:45:47;99528.63;;;7.86;53.24
59531;BME280;45349;48.692;8.186;2023-04-03T09:48:17;99532.50;;;7.80;52.32
59531;BME280;45349;48.692;8.186;2023-04-03T09:51:08;99521.09;;;8.30;50.14
59531;BME280;45349;48.692;8.186;2023-04-03T09:53:42;99529.22;;;8.13;50.60
59531;BME280;45349;48.692;8.186;2023-04-03T09:56:21;99532.72;;;8.01;51.47
59531;BME280;45349;48.692;8.186;2023-04-03T09:58:50;99532.59;;;7.54;50.04
59531;BME280;45349;48.692;8.186;2023-04-03T10:01:23;99537.91;;;6.63;54.66
59531;BME280;45349;48.692;8.186;2023-04-03T10:04:03;99530.31;;;7.12;51.47
59531;BME280;45349;48.692;8.186;2023-04-03T10:06:31;99533.59;;;7.64;53.19
59531;BME280;45349;48.692;8.186;2023-04-03T10:09:03;99521.03;;;7.82;52.63
59531;BME280;45349;48.692;8.186;2023-04-03T10:11:31;99526.91;;;8.33;49.13
59531;BME280;45349;48.692;8.186;2023-04-03T10:14:00;99539.47;;;8.39;49.14
59531;BME280;45349;48.692;8.186;2023-04-03T10:16:41;99531.88;;;7.76;49.56
59531;BME280;45349;48.692;8.186;2023-04-03T10:19:29;99531.25;;;7.11;49.63
59531;BME280;45349;48.692;8.186;2023-04-03T10:21:59;99543.41;;;6.85;51.93
59531;BME280;45349;48.692;8.186;2023-04-03T10:24:34;99536.00;;;7.17;51.73
59531;BME280;45349;48.692;8.186;2023-04-03T10:27:08;99533.59;;;7.27;50.65
59531;BME280;45349;48.692;8.186;2023-04-03T10:29:41;99529.88;;;7.05;50.40
59531;BME280;45349;48.692;8.186;2023-04-03T10:32:17;99530.81;;;7.04;53.14
59531;BME280;45349;48.692;8.186;2023-04-03T10:34:47;99523.44;;;7.11;50.35
59531;BME280;45349;48.692;8.186;2023-04-03T10:37:22;99528.09;;;7.19;51.37
59531;BME280;45349;48.692;8.186;2023-04-03T10:39:54;99530.06;;;7.65;51.44
59531;BME280;45349;48.692;8.186;2023-04-03T10:42:33;99524.00;;;7.78;48.18
59531;BME280;45349;48.692;8.186;2023-04-03T10:45:15;99526.09;;;7.35;51.08
59531;BME280;45349;48.692;8.186;2023-04-03T10:47:52;99528.91;;;7.94;52.46
59531;BME280;45349;48.692;8.186;2023-04-03T10:50:35;99521.44;;;8.25;50.33
59531;BME280;45349;48.692;8.186;2023-04-03T10:53:10;99527.19;;;8.17;50.93
59531;BME280;45349;48.692;8.186;2023-04-03T10:55:45;99517.91;;;8.02;48.05
59531;BME280;45349;48.692;8.186;2023-04-03T10:58:21;99524.50;;;7.83;49.41
59531;BME280;45349;48.692;8.186;2023-04-03T11:00:54;99529.34;;;7.26;49.47
59531;BME280;45349;48.692;8.186;2023-04-03T11:03:29;99522.28;;;7.52;50.12
59531;BME280;45349;48.692;8.186;2023-04-03T11:05:59;99530.03;;;8.14;48.09
59531;BME280;45349;48.692;8.186;2023-04-03T11:08:31;99524.69;;;8.04;50.15
59531;BME280;45349;48.692;8.186;2023-04-03T11:11:00;99517.66;;;8.18;49.72
59531;BME280;45349;48.692;8.186;2023-04-03T11:13:34;99517.28;;;8.58;44.31
59531;BME280;45349;48.692;8.186;2023-04-03T11:16:03;99515.66;;;7.97;47.41
59531;BME280;45349;48.692;8.186;2023-04-03T11:18:36;99522.44;;;8.11;47.19
59531;BME280;45349;48.692;8.186;2023-04-03T11:21:10;99522.53;;;7.12;49.54
59531;BME280;45349;48.692;8.186;2023-04-03T11:23:39;99516.28;;;7.52;48.37
59531;BME280;45349;48.692;8.186;2023-04-03T11:26:10;99514.78;;;7.36;49.05
59531;BME280;45349;48.692;8.186;2023-04-03T11:28:38;99506.38;;;7.20;48.71
59531;BME280;45349;48.692;8.186;2023-04-03T11:31:26;99501.41;;;7.54;49.10
59531;BME280;45349;48.692;8.186;2023-04-03T11:34:05;99501.41;;;7.78;51.12
59531;BME280;45349;48.692;8.186;2023-04-03T11:36:39;99507.50;;;7.90;48.20
59531;BME280;45349;48.692;8.186;2023-04-03T11:39:16;99509.38;;;7.88;48.26
59531;BME280;45349;48.692;8.186;2023-04-03T11:41:45;99506.38;;;7.81;52.63
59531;BME280;45349;48.692;8.186;2023-04-03T11:44:30;99517.09;;;8.01;51.90
59531;BME280;45349;48.692;8.186;2023-04-03T11:47:00;99504.69;;;8.29;50.91
59531;BME280;45349;48.692;8.186;2023-04-03T11:49:50;99502.38;;;8.71;45.21
59531;BME280;45349;48.692;8.186;2023-04-03T11:55:42;99500.00;;;8.57;48.36
59531;BME280;45349;48.692;8.186;2023-04-03T11:58:14;99507.00;;;8.56;47.93
59531;BME280;45349;48.692;8.186;2023-04-03T12:00:55;99490.56;;;7.85;50.27
59531;BME280;45349;48.692;8.186;2023-04-03T12:04:04;99495.09;;;7.94;49.02
59531;BME280;45349;48.692;8.186;2023-04-03T12:06:50;99493.34;;;7.94;47.16
59531;BME280;45349;48.692;8.186;2023-04-03T12:09:30;99490.75;;;7.94;50.90
59531;BME280;45349;48.692;8.186;2023-04-03T12:11:59;99488.81;;;8.21;50.16
59531;BME280;45349;48.692;8.186;2023-04-03T12:14:28;99489.50;;;8.59;50.76
59531;BME280;45349;48.692;8.186;2023-04-03T12:16:57;99484.53;;;8.55;50.38
59531;BME280;45349;48.692;8.186;2023-04-03T12:19:36;99495.19;;;8.17;47.79
59531;BME280;45349;48.692;8.186;2023-04-03T12:22:23;99488.94;;;8.31;47.91
59531;BME280;45349;48.692;8.186;2023-04-03T12:24:52;99495.34;;;8.38;46.56
59531;BME280;45349;48.692;8.186;2023-04-03T12:27:25;99484.84;;;8.51;49.45
59531;BME280;45349;48.692;8.186;2023-04-03T12:29:56;99488.06;;;8.54;47.63
59531;BME280;45349;48.692;8.186;2023-04-03T12:32:36;99476.69;;;9.12;51.25
59531;BME280;45349;48.692;8.186;2023-04-03T12:35:10;99477.06;;;8.62;47.60
59531;BME280;45349;48.692;8.186;2023-04-03T12:37:51;99474.94;;;8.67;48.36
59531;BME280;45349;48.692;8.186;2023-04-03T12:40:25;99477.75;;;7.94;47.45
59531;BME280;45349;48.692;8.186;2023-04-03T12:43:17;99481.78;;;8.10;48.61
59531;BME280;45349;48.692;8.186;2023-04-03T12:45:51;99476.13;;;7.80;45.97
59531;BME280;45349;48.692;8.186;2023-04-03T12:48:27;99480.47;;;7.07;49.96
59531;BME280;45349;48.692;8.186;2023-04-03T12:50:56;99472.06;;;7.41;48.24
59531;BME280;45349;48.692;8.186;2023-04-03T12:53:25;99477.94;;;7.80;47.96
59531;BME280;45349;48.692;8.186;2023-04-03T12:55:54;99486.41;;;8.06;50.34
59531;BME280;45349;48.692;8.186;2023-04-03T12:58:23;99477.34;;;8.35;45.69
59531;BME280;45349;48.692;8.186;2023-04-03T13:00:59;99466.47;;;8.30;45.04
59531;BME280;45349;48.692;8.186;2023-04-03T13:03:29;99474.16;;;7.60;48.41
59531;BME280;45349;48.692;8.186;2023-04-03T13:05:59;99480.56;;;7.43;47.61
59531;BME280;45349;48.692;8.186;2023-04-03T13:08:25;99480.78;;;7.39;46.96
59531;BME280;45349;48.692;8.186;2023-04-03T13:10:55;99478.09;;;7.41;48.97
59531;BME280;45349;48.692;8.186;2023-04-03T13:13:24;99477.44;;;7.00;47.60
59531;BME280;45349;48.692;8.186;2023-04-03T13:15:52;99482.34;;;6.92;49.76
59531;BME280;45349;48.692;8.186;2023-04-03T13:18:30;99483.94;;;6.43;51.40
59531;BME280;45349;48.692;8.186;2023-04-03T13:21:02;99474.81;;;6.50;50.28
59531;BME280;45349;48.692;8.186;2023-04-03T13:23:30;99480.94;;;6.36;52.08
59531;BME280;45349;48.692;8.186;2023-04-03T13:25:58;99484.88;;;6.68;52.89